sensor_id;sensor_type;location;lat;lon;timestamp;P1;durP1;ratioP1;P2;durP2;ratioP2
24143;SDS011;12307;50.828;6.080;2022-09-24T00:00:37;1.60;;;1.30;;
24143;SDS011;12307;50.828;6.080;2022-09-24T00:03:02;1.65;;;1.27;;
24143;SDS011;12307;50.828;6.080;2022-09-24T00:05:28;2.10;;;1.50;;
24143;SDS011;12307;50.828;6.080;2022-09-24T00:07:54;1.80;;;1.60;;
24143;SDS011;12307;50.828;6.080;2022-09-24T00:10:19;2.80;;;1.50;;
24143;SDS011;12307;50.828;6.080;2022-09-24T00:12:48;1.60;;;1.33;;
24143;SDS011;12307;50.828;6.080;2022-09-24T00:15:16;1.77;;;1.30;;
24143;SDS011;12307;50.828;6.080;2022-09-24T00:17:41;1.95;;;1.40;;
24143;SDS011;12307;50.828;6.080;2022-09-24T00:20:07;1.75;;;1.40;;
24143;SDS011;12307;50.828;6.080;2022-09-24T00:22:33;1.90;;;1.50;;
24143;SDS011;12307;50.828;6.080;2022-09-24T00:24:59;1.67;;;1.48;;
24143;SDS011;12307;50.828;6.080;2022-09-24T00:27:45;1.60;;;1.48;;
24143;SDS011;12307;50.828;6.080;2022-09-24T00:30:12;1.98;;;1.60;;
24143;SDS011;12307;50.828;6.080;2022-09-24T00:32:37;1.35;;;1.17;;
24143;SDS011;12307;50.828;6.080;2022-09-24T00:35:03;1.95;;;1.42;;
24143;SDS011;12307;50.828;6.080;2022-09-24T00:37:30;1.42;;;1.15;;
24143;SDS011;12307;50.828;6.080;2022-09-24T00:39:56;1.60;;;1.40;;
24143;SDS011;12307;50.828;6.080;2022-09-24T00:42:21;1.77;;;1.63;;
24143;SDS011;12307;50.828;6.080;2022-09-24T00:44:51;1.58;;;1.23;;
24143;SDS011;12307;50.828;6.080;2022-09-24T00:47:25;1.45;;;1.33;;
24143;SDS011;12307;50.828;6.080;2022-09-24T00:50:02;2.05;;;1.50;;
24143;SDS011;12307;50.828;6.080;2022-09-24T00:52:37;2.10;;;1.60;;
24143;SDS011;12307;50.828;6.080;2022-09-24T00:55:06;2.20;;;1.50;;
24143;SDS011;12307;50.828;6.080;2022-09-24T00:57:33;1.10;;;1.00;;
24143;SDS011;12307;50.828;6.080;2022-09-24T00:59:59;2.60;;;1.50;;
24143;SDS011;12307;50.828;6.080;2022-09-24T01:02:26;1.70;;;1.48;;
24143;SDS011;12307;50.828;6.080;2022-09-24T01:04:52;1.77;;;1.40;;
24143;SDS011;12307;50.828;6.080;2022-09-24T01:07:18;1.52;;;1.42;;
24143;SDS011;12307;50.828;6.080;2022-09-24T01:09:44;2.00;;;1.60;;
24143;SDS011;12307;50.828;6.080;2022-09-24T01:12:12;1.85;;;1.40;;
24143;SDS011;12307;50.828;6.080;2022-09-24T01:14:50;1.83;;;1.50;;
24143;SDS011;12307;50.828;6.080;2022-09-24T01:17:25;1.70;;;1.50;;
24143;SDS011;12307;50.828;6.080;2022-09-24T01:20:08;1.73;;;1.50;;
24143;SDS011;12307;50.828;6.080;2022-09-24T01:23:20;2.33;;;1.40;;
24143;SDS011;12307;50.828;6.080;2022-09-24T01:26:10;1.27;;;1.15;;
24143;SDS011;12307;50.828;6.080;2022-09-24T01:28:52;2.70;;;1.48;;
24143;SDS011;12307;50.828;6.080;2022-09-24T01:31:33;2.15;;;1.40;;
24143;SDS011;12307;50.828;6.080;2022-09-24T01:34:03;1.67;;;1.20;;
24143;SDS011;12307;50.828;6.080;2022-09-24T01:36:30;1.95;;;1.45;;
24143;SDS011;12307;50.828;6.080;2022-09-24T01:38:57;2.22;;;1.30;;
24143;SDS011;12307;50.828;6.080;2022-09-24T01:41:24;1.65;;;1.40;;
24143;SDS011;12307;50.828;6.080;2022-09-24T01:43:50;1.75;;;1.50;;
24143;SDS011;12307;50.828;6.080;2022-09-24T01:46:16;1.77;;;1.40;;
24143;SDS011;12307;50.828;6.080;2022-09-24T01:48:45;1.80;;;1.50;;
24143;SDS011;12307;50.828;6.080;2022-09-24T01:51:12;1.75;;;1.40;;
24143;SDS011;12307;50.828;6.080;2022-09-24T01:53:43;1.30;;;1.20;;
24143;SDS011;12307;50.828;6.080;2022-09-24T01:56:14;2.13;;;1.60;;
24143;SDS011;12307;50.828;6.080;2022-09-24T01:58:45;1.70;;;1.60;;
24143;SDS011;12307;50.828;6.080;2022-09-24T02:01:16;1.90;;;1.40;;
24143;SDS011;12307;50.828;6.080;2022-09-24T02:03:47;1.45;;;1.35;;
24143;SDS011;12307;50.828;6.080;2022-09-24T02:06:19;2.33;;;1.67;;
24143;SDS011;12307;50.828;6.080;2022-09-24T02:08:49;2.15;;;1.50;;
24143;SDS011;12307;50.828;6.080;2022-09-24T02:11:16;1.35;;;1.20;;
24143;SDS011;12307;50.828;6.080;2022-09-24T02:13:44;2.10;;;1.60;;
24143;SDS011;12307;50.828;6.080;2022-09-24T02:16:15;1.90;;;1.70;;
24143;SDS011;12307;50.828;6.080;2022-09-24T02:18:47;1.60;;;1.50;;
24143;SDS011;12307;50.828;6.080;2022-09-24T02:21:16;2.20;;;1.50;;
24143;SDS011;12307;50.828;6.080;2022-09-24T02:23:44;2.45;;;1.50;;
24143;SDS011;12307;50.828;6.080;2022-09-24T02:26:15;2.08;;;1.58;;
24143;SDS011;12307;50.828;6.080;2022-09-24T02:28:40;1.60;;;1.40;;
24143;SDS011;12307;50.828;6.080;2022-09-24T02:31:07;2.45;;;1.70;;
24143;SDS011;12307;50.828;6.080;2022-09-24T02:33:35;2.75;;;1.45;;
24143;SDS011;12307;50.828;6.080;2022-09-24T02:36:27;2.00;;;1.55;;
24143;SDS011;12307;50.828;6.080;2022-09-24T02:38:54;2.45;;;1.80;;
24143;SDS011;12307;50.828;6.080;2022-09-24T02:41:20;2.00;;;1.50;;
24143;SDS011;12307;50.828;6.080;2022-09-24T02:43:48;2.45;;;1.80;;
24143;SDS011;12307;50.828;6.080;2022-09-24T02:46:13;1.90;;;1.70;;
24143;SDS011;12307;50.828;6.080;2022-09-24T02:48:39;1.75;;;1.65;;
24143;SDS011;12307;50.828;6.080;2022-09-24T02:51:05;1.60;;;1.50;;
24143;SDS011;12307;50.828;6.080;2022-09-24T02:53:32;2.90;;;1.80;;
24143;SDS011;12307;50.828;6.080;2022-09-24T02:55:58;1.63;;;1.38;;
24143;SDS011;12307;50.828;6.080;2022-09-24T02:58:24;1.55;;;1.45;;
24143;SDS011;12307;50.828;6.080;2022-09-24T03:00:50;1.85;;;1.50;;
24143;SDS011;12307;50.828;6.080;2022-09-24T03:03:17;2.08;;;1.50;;
24143;SDS011;12307;50.828;6.080;2022-09-24T03:05:43;1.60;;;1.50;;
24143;SDS011;12307;50.828;6.080;2022-09-24T03:08:09;1.63;;;1.40;;
24143;SDS011;12307;50.828;6.080;2022-09-24T03:10:36;1.85;;;1.40;;
24143;SDS011;12307;50.828;6.080;2022-09-24T03:13:03;2.55;;;1.70;;
24143;SDS011;12307;50.828;6.080;2022-09-24T03:15:29;2.00;;;1.50;;
24143;SDS011;12307;50.828;6.080;2022-09-24T03:17:54;1.75;;;1.65;;
24143;SDS011;12307;50.828;6.080;2022-09-24T03:20:20;1.83;;;1.52;;
24143;SDS011;12307;50.828;6.080;2022-09-24T03:22:48;1.90;;;1.50;;
24143;SDS011;12307;50.828;6.080;2022-09-24T03:25:15;1.88;;;1.40;;
24143;SDS011;12307;50.828;6.080;2022-09-24T03:27:42;2.00;;;1.50;;
24143;SDS011;12307;50.828;6.080;2022-09-24T03:30:08;2.22;;;1.70;;
24143;SDS011;12307;50.828;6.080;2022-09-24T03:32:53;2.75;;;1.73;;
24143;SDS011;12307;50.828;6.080;2022-09-24T03:35:18;1.60;;;1.40;;
24143;SDS011;12307;50.828;6.080;2022-09-24T03:37:45;1.90;;;1.50;;
24143;SDS011;12307;50.828;6.080;2022-09-24T03:40:11;2.22;;;1.55;;
24143;SDS011;12307;50.828;6.080;2022-09-24T03:42:36;1.83;;;1.40;;
24143;SDS011;12307;50.828;6.080;2022-09-24T03:45:04;2.08;;;1.60;;
24143;SDS011;12307;50.828;6.080;2022-09-24T03:47:31;2.00;;;1.60;;
24143;SDS011;12307;50.828;6.080;2022-09-24T03:49:57;1.60;;;1.50;;
24143;SDS011;12307;50.828;6.080;2022-09-24T03:52:23;2.15;;;1.60;;
24143;SDS011;12307;50.828;6.080;2022-09-24T03:54:50;2.10;;;1.75;;
24143;SDS011;12307;50.828;6.080;2022-09-24T03:57:15;2.40;;;1.52;;
24143;SDS011;12307;50.828;6.080;2022-09-24T03:59:41;2.13;;;1.60;;
24143;SDS011;12307;50.828;6.080;2022-09-24T04:02:09;1.77;;;1.35;;
24143;SDS011;12307;50.828;6.080;2022-09-24T04:04:35;1.55;;;1.40;;
24143;SDS011;12307;50.828;6.080;2022-09-24T04:07:01;1.70;;;1.60;;
24143;SDS011;12307;50.828;6.080;2022-09-24T04:09:27;1.65;;;1.35;;
24143;SDS011;12307;50.828;6.080;2022-09-24T04:11:53;1.45;;;1.33;;
24143;SDS011;12307;50.828;6.080;2022-09-24T04:14:18;2.55;;;1.60;;
24143;SDS011;12307;50.828;6.080;2022-09-24T04:16:44;2.20;;;1.73;;
24143;SDS011;12307;50.828;6.080;2022-09-24T04:19:11;1.70;;;1.58;;
24143;SDS011;12307;50.828;6.080;2022-09-24T04:21:40;1.88;;;1.55;;
24143;SDS011;12307;50.828;6.080;2022-09-24T04:24:06;2.05;;;1.70;;
24143;SDS011;12307;50.828;6.080;2022-09-24T04:26:31;1.60;;;1.40;;
24143;SDS011;12307;50.828;6.080;2022-09-24T04:28:57;2.08;;;1.50;;
24143;SDS011;12307;50.828;6.080;2022-09-24T04:31:23;1.70;;;1.38;;
24143;SDS011;12307;50.828;6.080;2022-09-24T04:33:49;2.00;;;1.60;;
24143;SDS011;12307;50.828;6.080;2022-09-24T04:36:16;2.35;;;1.50;;
24143;SDS011;12307;50.828;6.080;2022-09-24T04:38:41;1.70;;;1.35;;
24143;SDS011;12307;50.828;6.080;2022-09-24T04:41:08;1.70;;;1.35;;
24143;SDS011;12307;50.828;6.080;2022-09-24T04:43:33;1.63;;;1.52;;
24143;SDS011;12307;50.828;6.080;2022-09-24T04:46:01;1.60;;;1.48;;
24143;SDS011;12307;50.828;6.080;2022-09-24T04:48:27;1.60;;;1.40;;
24143;SDS011;12307;50.828;6.080;2022-09-24T04:50:53;1.90;;;1.55;;
24143;SDS011;12307;50.828;6.080;2022-09-24T04:53:20;1.85;;;1.45;;
24143;SDS011;12307;50.828;6.080;2022-09-24T04:55:47;2.13;;;1.38;;
24143;SDS011;12307;50.828;6.080;2022-09-24T04:58:13;1.73;;;1.58;;
24143;SDS011;12307;50.828;6.080;2022-09-24T05:00:39;1.90;;;1.50;;
24143;SDS011;12307;50.828;6.080;2022-09-24T05:03:05;1.70;;;1.60;;
24143;SDS011;12307;50.828;6.080;2022-09-24T05:05:31;2.10;;;1.52;;
24143;SDS011;12307;50.828;6.080;2022-09-24T05:07:58;1.85;;;1.35;;
24143;SDS011;12307;50.828;6.080;2022-09-24T05:10:27;1.80;;;1.48;;
24143;SDS011;12307;50.828;6.080;2022-09-24T05:12:53;1.65;;;1.40;;
24143;SDS011;12307;50.828;6.080;2022-09-24T05:15:19;1.60;;;1.40;;
24143;SDS011;12307;50.828;6.080;2022-09-24T05:17:45;1.52;;;1.42;;
24143;SDS011;12307;50.828;6.080;2022-09-24T05:20:11;1.67;;;1.50;;
24143;SDS011;12307;50.828;6.080;2022-09-24T05:22:39;1.55;;;1.33;;
24143;SDS011;12307;50.828;6.080;2022-09-24T05:25:05;1.45;;;1.35;;
24143;SDS011;12307;50.828;6.080;2022-09-24T05:27:32;1.50;;;1.30;;
24143;SDS011;12307;50.828;6.080;2022-09-24T05:29:59;1.85;;;1.48;;
24143;SDS011;12307;50.828;6.080;2022-09-24T05:32:25;1.52;;;1.30;;
24143;SDS011;12307;50.828;6.080;2022-09-24T05:34:51;1.58;;;1.48;;
24143;SDS011;12307;50.828;6.080;2022-09-24T05:37:17;2.30;;;1.45;;
24143;SDS011;12307;50.828;6.080;2022-09-24T05:39:43;1.98;;;1.50;;
24143;SDS011;12307;50.828;6.080;2022-09-24T05:42:08;1.95;;;1.67;;
24143;SDS011;12307;50.828;6.080;2022-09-24T05:44:36;1.88;;;1.40;;
24143;SDS011;12307;50.828;6.080;2022-09-24T05:47:02;1.83;;;1.45;;
24143;SDS011;12307;50.828;6.080;2022-09-24T05:49:27;2.03;;;1.50;;
24143;SDS011;12307;50.828;6.080;2022-09-24T05:51:53;2.90;;;1.63;;
24143;SDS011;12307;50.828;6.080;2022-09-24T05:54:19;1.90;;;1.60;;
24143;SDS011;12307;50.828;6.080;2022-09-24T05:56:45;2.05;;;1.42;;
24143;SDS011;12307;50.828;6.080;2022-09-24T05:59:11;1.38;;;1.27;;
24143;SDS011;12307;50.828;6.080;2022-09-24T06:01:38;2.03;;;1.70;;
24143;SDS011;12307;50.828;6.080;2022-09-24T06:04:04;2.13;;;1.75;;
24143;SDS011;12307;50.828;6.080;2022-09-24T06:06:30;3.33;;;1.50;;
24143;SDS011;12307;50.828;6.080;2022-09-24T06:08:56;1.63;;;1.35;;
24143;SDS011;12307;50.828;6.080;2022-09-24T06:11:22;1.75;;;1.30;;
24143;SDS011;12307;50.828;6.080;2022-09-24T06:13:47;1.55;;;1.40;;
24143;SDS011;12307;50.828;6.080;2022-09-24T06:16:13;2.40;;;1.73;;
24143;SDS011;12307;50.828;6.080;2022-09-24T06:18:41;2.28;;;1.48;;
24143;SDS011;12307;50.828;6.080;2022-09-24T06:21:09;1.58;;;1.42;;
24143;SDS011;12307;50.828;6.080;2022-09-24T06:23:36;2.63;;;1.73;;
24143;SDS011;12307;50.828;6.080;2022-09-24T06:26:03;1.65;;;1.40;;
24143;SDS011;12307;50.828;6.080;2022-09-24T06:28:29;2.05;;;1.42;;
24143;SDS011;12307;50.828;6.080;2022-09-24T06:30:57;1.67;;;1.52;;
24143;SDS011;12307;50.828;6.080;2022-09-24T06:33:23;2.55;;;1.55;;
24143;SDS011;12307;50.828;6.080;2022-09-24T06:35:50;2.20;;;1.80;;
24143;SDS011;12307;50.828;6.080;2022-09-24T06:38:17;1.80;;;1.40;;
24143;SDS011;12307;50.828;6.080;2022-09-24T06:40:44;1.85;;;1.60;;
24143;SDS011;12307;50.828;6.080;2022-09-24T06:43:11;1.50;;;1.40;;
24143;SDS011;12307;50.828;6.080;2022-09-24T06:45:37;1.73;;;1.42;;
24143;SDS011;12307;50.828;6.080;2022-09-24T06:48:04;1.58;;;1.48;;
24143;SDS011;12307;50.828;6.080;2022-09-24T06:50:31;1.85;;;1.48;;
24143;SDS011;12307;50.828;6.080;2022-09-24T06:52:59;1.70;;;1.42;;
24143;SDS011;12307;50.828;6.080;2022-09-24T06:55:29;1.85;;;1.58;;
24143;SDS011;12307;50.828;6.080;2022-09-24T06:58:02;2.40;;;1.42;;
24143;SDS011;12307;50.828;6.080;2022-09-24T07:00:29;1.88;;;1.40;;
24143;SDS011;12307;50.828;6.080;2022-09-24T07:02:55;2.15;;;1.60;;
24143;SDS011;12307;50.828;6.080;2022-09-24T07:05:20;1.42;;;1.30;;
24143;SDS011;12307;50.828;6.080;2022-09-24T07:07:46;1.70;;;1.30;;
24143;SDS011;12307;50.828;6.080;2022-09-24T07:10:13;1.75;;;1.55;;
24143;SDS011;12307;50.828;6.080;2022-09-24T07:12:41;1.58;;;1.40;;
24143;SDS011;12307;50.828;6.080;2022-09-24T07:15:07;2.13;;;1.50;;
24143;SDS011;12307;50.828;6.080;2022-09-24T07:17:34;2.17;;;1.63;;
24143;SDS011;12307;50.828;6.080;2022-09-24T07:19:59;1.52;;;1.42;;
24143;SDS011;12307;50.828;6.080;2022-09-24T07:22:25;1.55;;;1.45;;
24143;SDS011;12307;50.828;6.080;2022-09-24T07:24:52;1.88;;;1.40;;
24143;SDS011;12307;50.828;6.080;2022-09-24T07:27:18;2.15;;;1.60;;
24143;SDS011;12307;50.828;6.080;2022-09-24T07:29:45;2.17;;;1.60;;
24143;SDS011;12307;50.828;6.080;2022-09-24T07:32:11;1.85;;;1.50;;
24143;SDS011;12307;50.828;6.080;2022-09-24T07:34:36;1.67;;;1.52;;
24143;SDS011;12307;50.828;6.080;2022-09-24T07:37:02;2.03;;;1.67;;
24143;SDS011;12307;50.828;6.080;2022-09-24T07:39:28;2.42;;;1.70;;
24143;SDS011;12307;50.828;6.080;2022-09-24T07:41:53;2.20;;;1.95;;
24143;SDS011;12307;50.828;6.080;2022-09-24T07:44:21;2.13;;;1.58;;
24143;SDS011;12307;50.828;6.080;2022-09-24T07:46:49;1.40;;;1.30;;
24143;SDS011;12307;50.828;6.080;2022-09-24T07:49:15;2.75;;;1.77;;
24143;SDS011;12307;50.828;6.080;2022-09-24T07:51:41;1.67;;;1.40;;
24143;SDS011;12307;50.828;6.080;2022-09-24T07:54:07;1.73;;;1.58;;
24143;SDS011;12307;50.828;6.080;2022-09-24T07:56:34;1.45;;;1.30;;
24143;SDS011;12307;50.828;6.080;2022-09-24T07:59:00;1.65;;;1.40;;
24143;SDS011;12307;50.828;6.080;2022-09-24T08:01:27;3.13;;;1.75;;
24143;SDS011;12307;50.828;6.080;2022-09-24T08:03:54;2.20;;;1.60;;
24143;SDS011;12307;50.828;6.080;2022-09-24T08:06:20;1.65;;;1.50;;
24143;SDS011;12307;50.828;6.080;2022-09-24T08:08:47;2.92;;;1.50;;
24143;SDS011;12307;50.828;6.080;2022-09-24T08:11:13;1.77;;;1.50;;
24143;SDS011;12307;50.828;6.080;2022-09-24T08:13:41;2.40;;;1.73;;
24143;SDS011;12307;50.828;6.080;2022-09-24T08:16:06;2.55;;;1.50;;
24143;SDS011;12307;50.828;6.080;2022-09-24T08:18:34;2.30;;;1.60;;
24143;SDS011;12307;50.828;6.080;2022-09-24T08:21:02;2.13;;;1.50;;
24143;SDS011;12307;50.828;6.080;2022-09-24T08:23:28;2.08;;;1.48;;
24143;SDS011;12307;50.828;6.080;2022-09-24T08:25:56;2.05;;;1.40;;
24143;SDS011;12307;50.828;6.080;2022-09-24T08:28:22;2.03;;;1.70;;
24143;SDS011;12307;50.828;6.080;2022-09-24T08:30:47;1.50;;;1.33;;
24143;SDS011;12307;50.828;6.080;2022-09-24T08:33:13;1.60;;;1.48;;
24143;SDS011;12307;50.828;6.080;2022-09-24T08:35:41;1.80;;;1.40;;
24143;SDS011;12307;50.828;6.080;2022-09-24T08:38:07;2.30;;;1.60;;
24143;SDS011;12307;50.828;6.080;2022-09-24T08:40:36;2.53;;;1.80;;
24143;SDS011;12307;50.828;6.080;2022-09-24T08:43:05;1.77;;;1.58;;
24143;SDS011;12307;50.828;6.080;2022-09-24T08:45:41;1.60;;;1.50;;
24143;SDS011;12307;50.828;6.080;2022-09-24T08:48:32;1.67;;;1.58;;
24143;SDS011;12307;50.828;6.080;2022-09-24T08:51:04;1.63;;;1.52;;
24143;SDS011;12307;50.828;6.080;2022-09-24T08:53:39;1.65;;;1.45;;
24143;SDS011;12307;50.828;6.080;2022-09-24T08:56:12;1.90;;;1.48;;
24143;SDS011;12307;50.828;6.080;2022-09-24T08:58:43;2.20;;;1.60;;
24143;SDS011;12307;50.828;6.080;2022-09-24T09:01:15;1.88;;;1.70;;
24143;SDS011;12307;50.828;6.080;2022-09-24T09:03:48;2.47;;;1.70;;
24143;SDS011;12307;50.828;6.080;2022-09-24T09:06:24;2.15;;;1.50;;
24143;SDS011;12307;50.828;6.080;2022-09-24T09:09:06;1.92;;;1.60;;
24143;SDS011;12307;50.828;6.080;2022-09-24T09:11:36;1.98;;;1.77;;
24143;SDS011;12307;50.828;6.080;2022-09-24T09:14:05;1.95;;;1.70;;
24143;SDS011;12307;50.828;6.080;2022-09-24T09:16:39;2.00;;;1.63;;
24143;SDS011;12307;50.828;6.080;2022-09-24T09:19:10;1.60;;;1.50;;
24143;SDS011;12307;50.828;6.080;2022-09-24T09:21:41;1.70;;;1.60;;
24143;SDS011;12307;50.828;6.080;2022-09-24T09:24:11;2.80;;;1.98;;
24143;SDS011;12307;50.828;6.080;2022-09-24T09:26:42;2.17;;;1.77;;
24143;SDS011;12307;50.828;6.080;2022-09-24T09:29:10;1.98;;;1.77;;
24143;SDS011;12307;50.828;6.080;2022-09-24T09:31:38;2.00;;;1.80;;
24143;SDS011;12307;50.828;6.080;2022-09-24T09:34:19;2.65;;;1.77;;
24143;SDS011;12307;50.828;6.080;2022-09-24T09:36:58;1.75;;;1.58;;
24143;SDS011;12307;50.828;6.080;2022-09-24T09:39:36;2.35;;;1.75;;
24143;SDS011;12307;50.828;6.080;2022-09-24T09:42:14;1.80;;;1.67;;
24143;SDS011;12307;50.828;6.080;2022-09-24T09:44:48;1.52;;;1.42;;
24143;SDS011;12307;50.828;6.080;2022-09-24T09:47:17;1.92;;;1.60;;
24143;SDS011;12307;50.828;6.080;2022-09-24T09:49:47;1.92;;;1.50;;
24143;SDS011;12307;50.828;6.080;2022-09-24T09:52:18;1.98;;;1.77;;
24143;SDS011;12307;50.828;6.080;2022-09-24T09:54:45;2.22;;;1.80;;
24143;SDS011;12307;50.828;6.080;2022-09-24T09:57:13;2.13;;;1.60;;
24143;SDS011;12307;50.828;6.080;2022-09-24T09:59:44;1.63;;;1.42;;
24143;SDS011;12307;50.828;6.080;2022-09-24T10:02:14;1.77;;;1.58;;
24143;SDS011;12307;50.828;6.080;2022-09-24T10:04:46;1.63;;;1.50;;
24143;SDS011;12307;50.828;6.080;2022-09-24T10:07:12;2.05;;;1.63;;
24143;SDS011;12307;50.828;6.080;2022-09-24T10:09:41;1.88;;;1.50;;
24143;SDS011;12307;50.828;6.080;2022-09-24T10:12:11;2.13;;;1.92;;
24143;SDS011;12307;50.828;6.080;2022-09-24T10:14:40;1.77;;;1.52;;
24143;SDS011;12307;50.828;6.080;2022-09-24T10:17:09;2.08;;;1.88;;
24143;SDS011;12307;50.828;6.080;2022-09-24T10:19:37;1.88;;;1.70;;
24143;SDS011;12307;50.828;6.080;2022-09-24T10:22:09;2.25;;;1.83;;
24143;SDS011;12307;50.828;6.080;2022-09-24T10:24:44;1.70;;;1.60;;
24143;SDS011;12307;50.828;6.080;2022-09-24T10:27:10;2.17;;;1.67;;
24143;SDS011;12307;50.828;6.080;2022-09-24T10:29:37;2.15;;;1.60;;
24143;SDS011;12307;50.828;6.080;2022-09-24T10:32:22;2.10;;;1.70;;
24143;SDS011;12307;50.828;6.080;2022-09-24T10:34:55;2.35;;;1.52;;
24143;SDS011;12307;50.828;6.080;2022-09-24T10:37:22;1.92;;;1.60;;
24143;SDS011;12307;50.828;6.080;2022-09-24T10:39:56;2.22;;;1.63;;
24143;SDS011;12307;50.828;6.080;2022-09-24T10:42:23;1.83;;;1.48;;
24143;SDS011;12307;50.828;6.080;2022-09-24T10:44:50;1.48;;;1.38;;
24143;SDS011;12307;50.828;6.080;2022-09-24T10:47:19;1.92;;;1.50;;
24143;SDS011;12307;50.828;6.080;2022-09-24T10:49:53;2.08;;;1.60;;
24143;SDS011;12307;50.828;6.080;2022-09-24T10:52:32;2.22;;;1.80;;
24143;SDS011;12307;50.828;6.080;2022-09-24T10:55:10;1.90;;;1.77;;
24143;SDS011;12307;50.828;6.080;2022-09-24T10:57:45;2.33;;;1.70;;
24143;SDS011;12307;50.828;6.080;2022-09-24T11:00:20;2.00;;;1.70;;
24143;SDS011;12307;50.828;6.080;2022-09-24T11:03:03;1.77;;;1.52;;
24143;SDS011;12307;50.828;6.080;2022-09-24T11:05:43;2.35;;;1.80;;
24143;SDS011;12307;50.828;6.080;2022-09-24T11:08:16;1.85;;;1.60;;
24143;SDS011;12307;50.828;6.080;2022-09-24T11:13:43;2.13;;;1.92;;
24143;SDS011;12307;50.828;6.080;2022-09-24T11:16:18;2.08;;;1.73;;
24143;SDS011;12307;50.828;6.080;2022-09-24T11:19:04;1.98;;;1.77;;
24143;SDS011;12307;50.828;6.080;2022-09-24T11:21:41;2.47;;;2.00;;
24143;SDS011;12307;50.828;6.080;2022-09-24T11:24:35;2.10;;;1.90;;
24143;SDS011;12307;50.828;6.080;2022-09-24T11:27:31;1.90;;;1.70;;
24143;SDS011;12307;50.828;6.080;2022-09-24T11:30:08;4.47;;;1.60;;
24143;SDS011;12307;50.828;6.080;2022-09-24T11:32:40;2.53;;;1.90;;
24143;SDS011;12307;50.828;6.080;2022-09-24T11:35:22;1.95;;;1.75;;
24143;SDS011;12307;50.828;6.080;2022-09-24T11:37:57;2.13;;;1.80;;
24143;SDS011;12307;50.828;6.080;2022-09-24T11:40:31;2.00;;;1.77;;
24143;SDS011;12307;50.828;6.080;2022-09-24T11:46:12;2.13;;;1.83;;
24143;SDS011;12307;50.828;6.080;2022-09-24T11:48:51;2.30;;;1.70;;
24143;SDS011;12307;50.828;6.080;2022-09-24T11:51:25;1.98;;;1.80;;
24143;SDS011;12307;50.828;6.080;2022-09-24T11:54:00;2.75;;;1.70;;
24143;SDS011;12307;50.828;6.080;2022-09-24T11:56:32;1.88;;;1.70;;
24143;SDS011;12307;50.828;6.080;2022-09-24T11:59:07;2.08;;;1.88;;
24143;SDS011;12307;50.828;6.080;2022-09-24T12:01:43;2.63;;;1.90;;
24143;SDS011;12307;50.828;6.080;2022-09-24T12:04:14;2.08;;;1.88;;
24143;SDS011;12307;50.828;6.080;2022-09-24T12:06:44;2.25;;;1.92;;
24143;SDS011;12307;50.828;6.080;2022-09-24T12:09:16;2.20;;;1.70;;
24143;SDS011;12307;50.828;6.080;2022-09-24T12:11:49;2.55;;;2.05;;
24143;SDS011;12307;50.828;6.080;2022-09-24T12:14:23;1.70;;;1.60;;
24143;SDS011;12307;50.828;6.080;2022-09-24T12:16:55;2.03;;;1.80;;
24143;SDS011;12307;50.828;6.080;2022-09-24T12:19:25;2.00;;;1.80;;
24143;SDS011;12307;50.828;6.080;2022-09-24T12:21:55;1.90;;;1.70;;
24143;SDS011;12307;50.828;6.080;2022-09-24T12:24:24;1.52;;;1.42;;
24143;SDS011;12307;50.828;6.080;2022-09-24T12:26:55;1.70;;;1.60;;
24143;SDS011;12307;50.828;6.080;2022-09-24T12:29:31;2.80;;;2.10;;
24143;SDS011;12307;50.828;6.080;2022-09-24T12:32:24;2.20;;;2.00;;
24143;SDS011;12307;50.828;6.080;2022-09-24T12:35:17;2.08;;;1.70;;
24143;SDS011;12307;50.828;6.080;2022-09-24T12:37:50;2.53;;;1.70;;
24143;SDS011;12307;50.828;6.080;2022-09-24T12:40:23;2.25;;;1.90;;
24143;SDS011;12307;50.828;6.080;2022-09-24T12:43:02;2.20;;;2.00;;
24143;SDS011;12307;50.828;6.080;2022-09-24T12:45:35;2.33;;;1.70;;
24143;SDS011;12307;50.828;6.080;2022-09-24T12:48:01;2.38;;;1.90;;
24143;SDS011;12307;50.828;6.080;2022-09-24T12:50:27;1.95;;;1.80;;
24143;SDS011;12307;50.828;6.080;2022-09-24T12:52:55;2.03;;;1.83;;
24143;SDS011;12307;50.828;6.080;2022-09-24T12:55:22;1.95;;;1.75;;
24143;SDS011;12307;50.828;6.080;2022-09-24T12:57:49;3.58;;;2.00;;
24143;SDS011;12307;50.828;6.080;2022-09-24T13:00:34;2.15;;;1.88;;
24143;SDS011;12307;50.828;6.080;2022-09-24T13:03:04;2.10;;;1.90;;
24143;SDS011;12307;50.828;6.080;2022-09-24T13:05:31;2.22;;;2.00;;
24143;SDS011;12307;50.828;6.080;2022-09-24T13:07:59;2.22;;;1.88;;
24143;SDS011;12307;50.828;6.080;2022-09-24T13:10:27;2.30;;;2.10;;
24143;SDS011;12307;50.828;6.080;2022-09-24T13:12:54;1.90;;;1.80;;
24143;SDS011;12307;50.828;6.080;2022-09-24T13:15:22;2.60;;;2.00;;
24143;SDS011;12307;50.828;6.080;2022-09-24T13:18:00;2.83;;;1.80;;
24143;SDS011;12307;50.828;6.080;2022-09-24T13:20:28;1.92;;;1.73;;
24143;SDS011;12307;50.828;6.080;2022-09-24T13:22:55;2.67;;;1.92;;
24143;SDS011;12307;50.828;6.080;2022-09-24T13:25:22;2.10;;;1.80;;
24143;SDS011;12307;50.828;6.080;2022-09-24T13:27:56;2.33;;;2.00;;
24143;SDS011;12307;50.828;6.080;2022-09-24T13:30:30;2.38;;;2.00;;
24143;SDS011;12307;50.828;6.080;2022-09-24T13:33:03;2.00;;;1.80;;
24143;SDS011;12307;50.828;6.080;2022-09-24T13:35:39;2.33;;;1.77;;
24143;SDS011;12307;50.828;6.080;2022-09-24T13:38:11;2.30;;;2.10;;
24143;SDS011;12307;50.828;6.080;2022-09-24T13:40:42;2.25;;;2.05;;
24143;SDS011;12307;50.828;6.080;2022-09-24T13:43:14;2.13;;;1.80;;
24143;SDS011;12307;50.828;6.080;2022-09-24T13:45:44;1.90;;;1.80;;
24143;SDS011;12307;50.828;6.080;2022-09-24T13:48:14;3.17;;;2.05;;
24143;SDS011;12307;50.828;6.080;2022-09-24T13:50:49;2.60;;;1.85;;
24143;SDS011;12307;50.828;6.080;2022-09-24T13:53:17;2.38;;;2.00;;
24143;SDS011;12307;50.828;6.080;2022-09-24T13:55:51;2.28;;;2.08;;
24143;SDS011;12307;50.828;6.080;2022-09-24T13:58:25;1.95;;;1.73;;
24143;SDS011;12307;50.828;6.080;2022-09-24T14:00:51;2.17;;;1.95;;
24143;SDS011;12307;50.828;6.080;2022-09-24T14:03:20;1.90;;;1.75;;
24143;SDS011;12307;50.828;6.080;2022-09-24T14:05:49;2.22;;;1.88;;
24143;SDS011;12307;50.828;6.080;2022-09-24T14:08:16;2.47;;;1.92;;
24143;SDS011;12307;50.828;6.080;2022-09-24T14:10:44;2.50;;;2.20;;
24143;SDS011;12307;50.828;6.080;2022-09-24T14:13:16;2.60;;;2.10;;
24143;SDS011;12307;50.828;6.080;2022-09-24T14:15:48;2.05;;;1.80;;
24143;SDS011;12307;50.828;6.080;2022-09-24T14:18:21;1.90;;;1.75;;
24143;SDS011;12307;50.828;6.080;2022-09-24T14:20:49;2.70;;;2.47;;
24143;SDS011;12307;50.828;6.080;2022-09-24T14:23:18;2.10;;;1.90;;
24143;SDS011;12307;50.828;6.080;2022-09-24T14:25:48;2.30;;;2.10;;
24143;SDS011;12307;50.828;6.080;2022-09-24T14:28:15;2.17;;;1.92;;
24143;SDS011;12307;50.828;6.080;2022-09-24T14:30:46;2.10;;;1.90;;
24143;SDS011;12307;50.828;6.080;2022-09-24T14:33:14;2.50;;;2.30;;
24143;SDS011;12307;50.828;6.080;2022-09-24T14:35:44;1.92;;;1.73;;
24143;SDS011;12307;50.828;6.080;2022-09-24T14:38:13;2.70;;;2.00;;
24143;SDS011;12307;50.828;6.080;2022-09-24T14:40:41;2.33;;;1.92;;
24143;SDS011;12307;50.828;6.080;2022-09-24T14:43:13;3.28;;;2.30;;
24143;SDS011;12307;50.828;6.080;2022-09-24T14:45:42;2.08;;;1.88;;
24143;SDS011;12307;50.828;6.080;2022-09-24T14:48:16;2.38;;;2.17;;
24143;SDS011;12307;50.828;6.080;2022-09-24T14:50:46;2.00;;;1.85;;
24143;SDS011;12307;50.828;6.080;2022-09-24T14:53:12;2.70;;;2.20;;
24143;SDS011;12307;50.828;6.080;2022-09-24T14:55:44;2.53;;;2.00;;
24143;SDS011;12307;50.828;6.080;2022-09-24T14:58:23;2.47;;;2.28;;
24143;SDS011;12307;50.828;6.080;2022-09-24T15:00:51;2.58;;;2.00;;
24143;SDS011;12307;50.828;6.080;2022-09-24T15:03:21;2.30;;;2.10;;
24143;SDS011;12307;50.828;6.080;2022-09-24T15:06:01;2.17;;;1.98;;
24143;SDS011;12307;50.828;6.080;2022-09-24T15:08:28;2.33;;;1.92;;